createdAt,value
2023-03-18T00:01:22.652Z,4.5
2023-03-18T00:04:22.654Z,4.4
2023-03-18T00:07:22.723Z,4.4
2023-03-18T00:10:22.664Z,4.5
2023-03-18T00:13:22.666Z,4.7
2023-03-18T00:16:22.748Z,4.3
2023-03-18T00:19:22.664Z,4.4
2023-03-18T00:22:22.695Z,4.4
2023-03-18T00:25:22.688Z,4.4
2023-03-18T00:28:22.675Z,4.3
2023-03-18T00:31:22.725Z,4.3
2023-03-18T00:34:22.664Z,4.4
2023-03-18T00:37:22.675Z,7.4
2023-03-18T00:40:22.672Z,6.9
2023-03-18T00:43:22.713Z,6.3
2023-03-18T00:46:22.694Z,6.7
2023-03-18T00:49:22.681Z,6.3
2023-03-18T00:52:22.687Z,4.7
2023-03-18T00:55:22.687Z,4.5
2023-03-18T00:58:22.695Z,4.6
2023-03-18T01:01:22.796Z,4.5
2023-03-18T01:04:22.697Z,3.9
2023-03-18T01:07:22.699Z,4.2
2023-03-18T01:10:22.704Z,4.2
2023-03-18T01:13:22.701Z,4
2023-03-18T01:16:22.808Z,3.9
2023-03-18T01:19:22.740Z,4.3
2023-03-18T01:22:22.721Z,4.3
2023-03-18T01:25:22.726Z,4.2
2023-03-18T01:28:22.724Z,3.9
2023-03-18T01:31:22.751Z,4.1
2023-03-18T01:34:22.740Z,4.1
2023-03-18T01:37:23.826Z,4.1
2023-03-18T01:40:22.741Z,4
2023-03-18T01:43:22.747Z,3.9
2023-03-18T01:46:22.748Z,3.9
2023-03-18T01:49:22.751Z,4
2023-03-18T01:52:22.753Z,3.5
2023-03-18T01:55:22.933Z,3.7
2023-03-18T01:58:22.763Z,3.6
2023-03-18T02:01:22.811Z,3.4
2023-03-18T02:04:22.772Z,3.4
2023-03-18T02:07:22.781Z,3.4
2023-03-18T02:10:22.768Z,3.2
2023-03-18T02:13:22.796Z,3.1
2023-03-18T02:16:22.822Z,3
2023-03-18T02:19:22.777Z,2.9
2023-03-18T02:22:22.808Z,2.8
2023-03-18T02:25:22.804Z,3.1
2023-03-18T02:28:22.794Z,3
2023-03-18T02:31:22.908Z,2.6
2023-03-18T02:34:22.810Z,2.7
2023-03-18T02:37:22.808Z,2.6
2023-03-18T02:40:22.827Z,2.6
2023-03-18T02:43:22.840Z,2.3
2023-03-18T02:46:22.853Z,2.3
2023-03-18T02:49:22.857Z,2.4
2023-03-18T02:52:22.846Z,2.2
2023-03-18T02:55:22.852Z,2.3
2023-03-18T02:58:22.851Z,2.2
2023-03-18T03:01:22.902Z,2.3
2023-03-18T03:04:22.859Z,2.3
2023-03-18T03:07:22.889Z,2.2
2023-03-18T03:10:22.866Z,2.4
2023-03-18T03:13:22.870Z,2.1
2023-03-18T03:16:22.874Z,2.2
2023-03-18T03:19:22.880Z,2
2023-03-18T03:22:22.888Z,2.3
2023-03-18T03:25:23.061Z,2.2
2023-03-18T03:28:22.940Z,2.1
2023-03-18T03:31:22.911Z,2
2023-03-18T03:34:22.908Z,2.1
2023-03-18T03:37:22.911Z,2
2023-03-18T03:40:22.918Z,2
2023-03-18T03:43:22.948Z,2.1
2023-03-18T03:46:22.935Z,2
2023-03-18T03:49:22.940Z,2
2023-03-18T03:52:22.940Z,2
2023-03-18T03:55:22.948Z,2.1
2023-03-18T03:58:22.938Z,2
2023-03-18T04:01:22.977Z,2.1
2023-03-18T04:04:23.032Z,2.2
2023-03-18T04:07:22.955Z,2.2
2023-03-18T04:10:22.957Z,2.3
2023-03-18T04:13:22.967Z,2
2023-03-18T04:16:23.010Z,2.2
2023-03-18T04:19:23.002Z,2
2023-03-18T04:22:22.977Z,2.1
2023-03-18T04:25:22.984Z,2.3
2023-03-18T04:28:23.008Z,2.3
2023-03-18T04:31:23.032Z,2.2
2023-03-18T04:34:23.001Z,2.2
2023-03-18T04:37:23.043Z,2.3
2023-03-18T04:40:23.018Z,2.4
2023-03-18T04:43:23.021Z,2.5
2023-03-18T04:46:23.052Z,2.5
2023-03-18T04:49:23.032Z,2.7
2023-03-18T04:52:23.045Z,2.8
2023-03-18T04:55:23.070Z,2.6
2023-03-18T04:58:23.056Z,2.7
2023-03-18T05:01:23.105Z,2.6
2023-03-18T05:04:23.064Z,2.7
2023-03-18T05:07:23.081Z,2.6
2023-03-18T05:10:23.091Z,2.7
2023-03-18T05:13:23.115Z,2.6
2023-03-18T05:16:23.141Z,2.7
2023-03-18T05:19:23.113Z,2.8
2023-03-18T05:22:23.122Z,2.8
2023-03-18T05:25:23.130Z,2.7
2023-03-18T05:28:23.141Z,3
2023-03-18T05:31:23.216Z,2.8
2023-03-18T05:34:23.149Z,2.8
2023-03-18T05:37:23.162Z,2.7
2023-03-18T05:40:23.162Z,2.7
2023-03-18T05:43:23.175Z,2.7
2023-03-18T05:46:23.272Z,2.8
2023-03-18T05:49:23.234Z,2.8
2023-03-18T05:52:23.193Z,2.7
2023-03-18T05:55:23.199Z,3
2023-03-18T05:58:23.202Z,2.9
2023-03-18T06:01:23.206Z,2.9
2023-03-18T06:04:23.226Z,3.1
2023-03-18T06:07:23.259Z,3.3
2023-03-18T06:10:23.232Z,3.1
2023-03-18T06:13:23.235Z,3.3
2023-03-18T06:16:23.304Z,3
2023-03-18T06:19:23.242Z,2.9
2023-03-18T06:22:23.252Z,3.1
2023-03-18T06:25:23.286Z,3
2023-03-18T06:28:23.258Z,2.9
2023-03-18T06:31:23.304Z,3
2023-03-18T06:34:23.273Z,3.4
2023-03-18T06:37:23.276Z,3.2
2023-03-18T06:40:23.287Z,3.4
2023-03-18T06:43:23.307Z,3.2
2023-03-18T06:46:23.354Z,3.2
2023-03-18T06:49:23.296Z,3
2023-03-18T06:52:23.299Z,3.1
2023-03-18T06:55:23.307Z,3
2023-03-18T06:58:23.305Z,3.1
2023-03-18T07:01:23.391Z,3.1
2023-03-18T07:04:23.366Z,3
2023-03-18T07:07:23.313Z,3.2
2023-03-18T07:10:23.320Z,3.2
2023-03-18T07:13:23.329Z,3.3
2023-03-18T07:16:23.373Z,3.4
2023-03-18T07:19:23.357Z,3.4
2023-03-18T07:22:23.338Z,3.1
2023-03-18T07:25:23.337Z,3
2023-03-18T07:28:23.337Z,2.9
2023-03-18T07:31:23.410Z,2.7
2023-03-18T07:34:23.340Z,2.5
2023-03-18T07:37:23.371Z,2.7
2023-03-18T07:40:23.345Z,2.5
2023-03-18T07:43:23.348Z,2.6
2023-03-18T07:46:23.410Z,2.3
2023-03-18T07:49:23.356Z,2.4
2023-03-18T07:52:23.367Z,2.4
2023-03-18T07:55:23.454Z,2.5
2023-03-18T07:58:23.380Z,2.3
2023-03-18T08:01:23.393Z,2.4
2023-03-18T08:04:23.589Z,2.7
2023-03-18T08:07:23.404Z,2.5
2023-03-18T08:10:23.422Z,2.7
2023-03-18T08:13:23.450Z,2.2
2023-03-18T08:16:23.482Z,2.7
2023-03-18T08:19:23.443Z,2.5
2023-03-18T08:22:23.457Z,2.6
2023-03-18T08:25:23.466Z,2.6
2023-03-18T08:28:23.644Z,2.6
2023-03-18T08:31:23.519Z,2.5
2023-03-18T08:34:23.497Z,2.5
2023-03-18T08:37:23.674Z,2.5
2023-03-18T08:40:23.534Z,2.5
2023-03-18T08:43:23.534Z,2.6
2023-03-18T08:46:23.643Z,2.5
2023-03-18T08:49:23.586Z,2.6
2023-03-18T08:52:23.569Z,2.5
2023-03-18T08:55:23.574Z,2.4
2023-03-18T08:58:23.592Z,2.4
2023-03-18T09:01:23.678Z,2.5
2023-03-18T09:04:23.639Z,2.4
2023-03-18T09:07:23.651Z,2.7
2023-03-18T09:10:23.639Z,2.3
2023-03-18T09:13:23.653Z,2.1
2023-03-18T09:16:23.676Z,2.2
2023-03-18T09:19:23.665Z,2.4
2023-03-18T09:22:23.677Z,2.3
2023-03-18T09:25:23.716Z,2.1
2023-03-18T09:28:23.703Z,2.2
2023-03-18T09:31:23.783Z,2.6
2023-03-18T09:34:23.725Z,2.5
2023-03-18T09:37:23.742Z,2.7
2023-03-18T09:40:23.756Z,2.5
2023-03-18T09:43:23.809Z,2.8
2023-03-18T09:46:23.965Z,2.7
2023-03-18T09:49:23.786Z,2.8
2023-03-18T09:52:23.797Z,2.8
2023-03-18T09:55:23.817Z,3.2
2023-03-18T09:58:23.836Z,3.2
2023-03-18T10:01:23.907Z,3.3
2023-03-18T10:04:23.847Z,3.5
2023-03-18T10:07:23.860Z,3.6
2023-03-18T10:10:23.929Z,3.2
2023-03-18T10:13:23.892Z,3.7
2023-03-18T10:16:23.928Z,3.8
2023-03-18T10:19:23.941Z,3.7
2023-03-18T10:22:23.927Z,3.9
2023-03-18T10:25:23.956Z,3.9
2023-03-18T10:28:23.948Z,4.3
2023-03-18T10:31:23.993Z,4.2
2023-03-18T10:34:23.979Z,4.4
2023-03-18T10:37:24.015Z,4.6
2023-03-18T10:40:24.045Z,4.7
2023-03-18T10:43:24.035Z,4.9
2023-03-18T10:46:24.231Z,4.9
2023-03-18T10:49:24.046Z,4.7
2023-03-18T10:52:24.061Z,5.1
2023-03-18T10:55:24.099Z,4.9
2023-03-18T10:58:24.094Z,5.2
2023-03-18T11:01:24.127Z,5.1
2023-03-18T11:04:24.124Z,5.2
2023-03-18T11:07:24.154Z,6.3
2023-03-18T11:10:24.156Z,6.3
2023-03-18T11:13:24.192Z,5.4
2023-03-18T11:16:24.263Z,5.3
2023-03-18T11:19:24.453Z,4.7
2023-03-18T11:22:24.214Z,4.3
2023-03-18T11:25:24.262Z,4
2023-03-18T11:28:24.248Z,3.9
2023-03-18T11:31:24.365Z,3.5
2023-03-18T11:34:24.283Z,3.9
2023-03-18T11:37:25.847Z,3.8
2023-03-18T11:40:24.308Z,3.5
2023-03-18T11:43:24.326Z,2.9
2023-03-18T11:46:24.389Z,2.9
2023-03-18T11:49:24.379Z,2.9
2023-03-18T11:52:24.390Z,2.8
2023-03-18T11:55:24.377Z,2.6
2023-03-18T11:58:24.399Z,2.4
2023-03-18T12:01:24.400Z,2.3
2023-03-18T12:04:24.412Z,2.1
2023-03-18T12:07:24.440Z,2.2
2023-03-18T12:10:24.421Z,2.4
2023-03-18T12:13:24.421Z,2.2
2023-03-18T12:16:24.471Z,1.8
2023-03-18T12:19:24.440Z,1.9
2023-03-18T12:22:24.443Z,2.1
2023-03-18T12:25:24.488Z,2.2
2023-03-18T12:28:24.456Z,2
2023-03-18T12:31:24.457Z,2
2023-03-18T12:34:24.467Z,2.1
2023-03-18T12:37:24.462Z,2.1
2023-03-18T12:40:24.464Z,1.8
2023-03-18T12:43:24.508Z,2
2023-03-18T12:46:24.513Z,2
2023-03-18T12:49:24.500Z,1.4
2023-03-18T12:52:24.491Z,1.6
2023-03-18T12:55:24.488Z,1.6
2023-03-18T12:58:24.505Z,1.5
2023-03-18T13:01:24.617Z,1.3
2023-03-18T13:04:24.505Z,1.3
2023-03-18T13:07:24.513Z,1.4
2023-03-18T13:10:24.537Z,1.6
2023-03-18T13:13:24.522Z,1.2
2023-03-18T13:16:24.535Z,1.4
2023-03-18T13:19:24.549Z,1.4
2023-03-18T13:22:24.532Z,1.2
2023-03-18T13:25:24.536Z,1.4
2023-03-18T13:28:24.552Z,1.3
2023-03-18T13:31:24.574Z,1.4
2023-03-18T13:34:24.545Z,1.4
2023-03-18T13:37:24.580Z,1.6
2023-03-18T13:40:24.555Z,1.7
2023-03-18T13:43:24.572Z,1.5
2023-03-18T13:46:24.620Z,1.5
2023-03-18T13:49:24.566Z,1.5
2023-03-18T13:52:24.581Z,1.8
2023-03-18T13:55:24.603Z,1.7
2023-03-18T13:58:24.581Z,1.6
2023-03-18T14:01:24.700Z,1.7
2023-03-18T14:04:24.590Z,1.6
2023-03-18T14:07:24.591Z,1.8
2023-03-18T14:10:24.627Z,1.9
2023-03-18T14:13:24.630Z,1.7
2023-03-18T14:16:24.654Z,2
2023-03-18T14:19:24.613Z,1.9
2023-03-18T14:22:24.623Z,1.8
2023-03-18T14:25:24.621Z,1.8
2023-03-18T14:28:24.633Z,1.7
2023-03-18T14:31:24.700Z,1.8
2023-03-18T14:34:24.667Z,1.9
2023-03-18T14:37:24.647Z,1.6
2023-03-18T14:40:24.646Z,1.7
2023-03-18T14:43:24.646Z,1.7
2023-03-18T14:46:24.704Z,1.6
2023-03-18T14:49:24.681Z,1.7
2023-03-18T14:52:24.665Z,1.5
2023-03-18T14:55:24.670Z,1.7
2023-03-18T14:58:24.679Z,1.8
2023-03-18T15:01:24.727Z,1.6
2023-03-18T15:04:24.689Z,1.8
2023-03-18T15:07:24.712Z,1.6
2023-03-18T15:10:24.686Z,1.7
2023-03-18T15:13:24.684Z,1.6
2023-03-18T15:16:24.720Z,1.7
2023-03-18T15:19:25.715Z,1.6
2023-03-18T15:22:24.706Z,1.8
2023-03-18T15:25:24.733Z,1.5
2023-03-18T15:28:24.723Z,1.6
2023-03-18T15:31:24.729Z,1.8
2023-03-18T15:34:24.721Z,1.6
2023-03-18T15:37:24.723Z,1.6
2023-03-18T15:40:24.731Z,1.8
2023-03-18T15:43:24.758Z,1.7
2023-03-18T15:46:24.923Z,1.8
2023-03-18T15:49:24.744Z,1.6
2023-03-18T15:52:24.754Z,2.1
2023-03-18T15:55:24.750Z,1.8
2023-03-18T15:58:24.772Z,1.6
2023-03-18T16:01:24.889Z,1.6
2023-03-18T16:04:24.763Z,1.6
2023-03-18T16:07:24.780Z,2
2023-03-18T16:10:24.776Z,2
2023-03-18T16:13:24.781Z,1.7
2023-03-18T16:16:24.839Z,1.9
2023-03-18T16:19:24.840Z,1.8
2023-03-18T16:22:24.805Z,1.8
2023-03-18T16:25:24.799Z,1.7
2023-03-18T16:28:24.810Z,1.9
2023-03-18T16:31:24.827Z,1.7
2023-03-18T16:34:24.818Z,1.7
2023-03-18T16:37:24.965Z,1.7
2023-03-18T16:40:24.835Z,1.8
2023-03-18T16:43:24.828Z,1.7
2023-03-18T16:46:24.877Z,1.7
2023-03-18T16:49:24.831Z,1.7
2023-03-18T16:52:24.839Z,1.8
2023-03-18T16:55:24.871Z,1.7
2023-03-18T16:58:24.843Z,1.4
2023-03-18T17:01:25.019Z,1.7
2023-03-18T17:04:24.911Z,1.6
2023-03-18T17:07:24.865Z,1.7
2023-03-18T17:10:24.880Z,1.7
2023-03-18T17:13:24.888Z,1.6
2023-03-18T17:16:24.903Z,1.7
2023-03-18T17:19:24.876Z,1.8
2023-03-18T17:22:24.878Z,1.6
2023-03-18T17:25:24.888Z,1.7
2023-03-18T17:28:24.888Z,2.3
2023-03-18T17:31:24.957Z,2.3
2023-03-18T17:34:24.896Z,2.2
2023-03-18T17:37:24.917Z,2.1
2023-03-18T17:40:24.906Z,2.4
2023-03-18T17:43:24.908Z,2.2
2023-03-18T17:46:24.940Z,2.3
2023-03-18T17:49:24.937Z,2.6
2023-03-18T17:52:24.919Z,2.6
2023-03-18T17:55:24.926Z,2.8
2023-03-18T17:58:24.924Z,3.5
2023-03-18T18:01:24.995Z,3.5
2023-03-18T18:04:24.973Z,3.6
2023-03-18T18:07:24.960Z,7.1
2023-03-18T18:10:24.944Z,14.7
2023-03-18T18:13:24.946Z,12.6
2023-03-18T18:16:24.996Z,10.4
2023-03-18T18:19:24.955Z,10.5
2023-03-18T18:22:24.962Z,8.4
2023-03-18T18:25:24.995Z,8.9
2023-03-18T18:28:24.973Z,9.8
2023-03-18T18:31:25.011Z,9.5
2023-03-18T18:34:24.989Z,10.8
2023-03-18T18:37:24.985Z,13.3
2023-03-18T18:40:24.989Z,8
2023-03-18T18:43:25.023Z,5.3
2023-03-18T18:46:25.036Z,5.7
2023-03-18T18:49:25.011Z,4.6
2023-03-18T18:52:25.014Z,5.5
2023-03-18T18:55:25.017Z,5.2
2023-03-18T18:58:25.017Z,5
2023-03-18T19:01:25.047Z,4.5
2023-03-18T19:04:25.033Z,4.8
2023-03-18T19:07:25.030Z,4.3
2023-03-18T19:10:25.051Z,4.7
2023-03-18T19:13:25.040Z,4.4
2023-03-18T19:16:25.170Z,4.7
2023-03-18T19:19:25.102Z,5.6
2023-03-18T19:22:25.057Z,9.7
2023-03-18T19:25:25.076Z,12.6
2023-03-18T19:28:25.063Z,11.5
2023-03-18T19:31:25.104Z,9.9
2023-03-18T19:34:25.081Z,8.6
2023-03-18T19:37:25.113Z,8.6
2023-03-18T19:40:25.095Z,8.5
2023-03-18T19:43:25.093Z,8
2023-03-18T19:46:25.092Z,6.6
2023-03-18T19:49:25.120Z,6.2
2023-03-18T19:52:25.093Z,6.4
2023-03-18T19:55:25.137Z,6.2
2023-03-18T19:58:25.142Z,7
2023-03-18T20:01:25.156Z,7.3
2023-03-18T20:04:25.130Z,7.6
2023-03-18T20:07:25.134Z,9.9
2023-03-18T20:10:25.130Z,10.9
2023-03-18T20:13:25.163Z,10.6
2023-03-18T20:16:25.230Z,9.4
2023-03-18T20:19:25.141Z,8.1
2023-03-18T20:22:25.146Z,8.7
2023-03-18T20:25:25.156Z,8.9
2023-03-18T20:28:25.159Z,8.9
2023-03-18T20:31:25.219Z,8.4
2023-03-18T20:34:25.160Z,8
2023-03-18T20:37:25.162Z,7.7
2023-03-18T20:40:25.181Z,7.6
2023-03-18T20:43:25.177Z,7.8
2023-03-18T20:46:25.654Z,8.1
2023-03-18T20:49:25.209Z,8.4
2023-03-18T20:52:25.182Z,7.5
2023-03-18T20:55:25.347Z,7.3
2023-03-18T20:58:25.202Z,7.6
2023-03-18T21:01:25.207Z,7.8
2023-03-18T21:04:25.253Z,7.1
2023-03-18T21:07:25.237Z,7
2023-03-18T21:10:25.223Z,7.5
2023-03-18T21:13:25.223Z,8.3
2023-03-18T21:16:25.239Z,8
2023-03-18T21:19:25.230Z,9
2023-03-18T21:22:25.234Z,11.5
2023-03-18T21:25:25.259Z,13.8
2023-03-18T21:28:25.230Z,14.9
2023-03-18T21:31:25.299Z,15.7
2023-03-18T21:34:25.235Z,14.1
2023-03-18T21:37:25.241Z,14.3
2023-03-18T21:40:25.259Z,8.7
2023-03-18T21:43:25.276Z,8.3
2023-03-18T21:46:25.336Z,8.6
2023-03-18T21:49:25.252Z,9.3
2023-03-18T21:52:25.257Z,9.5
2023-03-18T21:55:25.272Z,9.6
2023-03-18T21:58:25.270Z,9.6
2023-03-18T22:01:25.340Z,9.4
2023-03-18T22:04:25.403Z,10
2023-03-18T22:07:25.280Z,10.3
2023-03-18T22:10:25.296Z,10.3
2023-03-18T22:13:25.303Z,10.4
2023-03-18T22:16:25.360Z,11.2
2023-03-18T22:19:25.325Z,11
2023-03-18T22:22:25.299Z,10.7
2023-03-18T22:25:25.313Z,10.5
2023-03-18T22:28:25.316Z,10.3
2023-03-18T22:31:25.379Z,9.5
2023-03-18T22:34:25.313Z,9.5
2023-03-18T22:37:25.345Z,9.8
2023-03-18T22:40:25.346Z,11.1
2023-03-18T22:43:25.330Z,10.9
2023-03-18T22:46:25.392Z,10.6
2023-03-18T22:49:25.333Z,12.6
2023-03-18T22:52:25.343Z,12.2
2023-03-18T22:55:25.372Z,12.4
2023-03-18T22:58:25.381Z,13.8
2023-03-18T23:01:25.447Z,14.6
2023-03-18T23:04:25.425Z,15.4
2023-03-18T23:07:25.424Z,14.6
2023-03-18T23:10:25.439Z,15.2
2023-03-18T23:13:25.442Z,15.4
2023-03-18T23:16:25.470Z,15.7
2023-03-18T23:19:25.423Z,17.4
2023-03-18T23:22:25.426Z,16.9
2023-03-18T23:25:25.435Z,17.1
2023-03-18T23:28:25.424Z,17
2023-03-18T23:31:25.486Z,17.2
2023-03-18T23:34:25.425Z,17.7
2023-03-18T23:37:25.427Z,17.8
2023-03-18T23:40:25.445Z,17.6
2023-03-18T23:43:25.426Z,17.6
2023-03-18T23:46:25.684Z,19.8
2023-03-18T23:49:25.451Z,20.3
2023-03-18T23:52:25.426Z,19.5
2023-03-18T23:55:33.373Z,16.9
2023-03-18T23:58:25.433Z,18.3
